sensor_id;sensor_type;location;lat;lon;timestamp;P1;durP1;ratioP1;P2;durP2;ratioP2
22191;SDS011;11261;52.456;10.850;2023-04-24T00:01:34;2.45;;;1.20;;
22191;SDS011;11261;52.456;10.850;2023-04-24T00:04:03;1.88;;;1.42;;
22191;SDS011;11261;52.456;10.850;2023-04-24T00:06:32;1.95;;;1.40;;
22191;SDS011;11261;52.456;10.850;2023-04-24T00:09:00;2.15;;;1.23;;
22191;SDS011;11261;52.456;10.850;2023-04-24T00:11:29;1.13;;;0.98;;
22191;SDS011;11261;52.456;10.850;2023-04-24T00:13:59;2.00;;;1.35;;
22191;SDS011;11261;52.456;10.850;2023-04-24T00:16:27;1.77;;;1.35;;
22191;SDS011;11261;52.456;10.850;2023-04-24T00:18:56;2.08;;;1.20;;
22191;SDS011;11261;52.456;10.850;2023-04-24T00:21:24;1.45;;;1.20;;
22191;SDS011;11261;52.456;10.850;2023-04-24T00:23:53;1.48;;;1.10;;
22191;SDS011;11261;52.456;10.850;2023-04-24T00:26:21;1.58;;;1.10;;
22191;SDS011;11261;52.456;10.850;2023-04-24T00:28:49;1.60;;;1.20;;
22191;SDS011;11261;52.456;10.850;2023-04-24T00:31:19;1.15;;;1.00;;
22191;SDS011;11261;52.456;10.850;2023-04-24T00:33:47;1.33;;;1.17;;
22191;SDS011;11261;52.456;10.850;2023-04-24T00:36:17;1.48;;;1.10;;
22191;SDS011;11261;52.456;10.850;2023-04-24T00:38:47;2.05;;;0.98;;
22191;SDS011;11261;52.456;10.850;2023-04-24T00:41:15;1.33;;;0.95;;
22191;SDS011;11261;52.456;10.850;2023-04-24T00:43:43;2.25;;;1.17;;
22191;SDS011;11261;52.456;10.850;2023-04-24T00:46:12;2.72;;;1.35;;
22191;SDS011;11261;52.456;10.850;2023-04-24T00:48:42;1.20;;;1.10;;
22191;SDS011;11261;52.456;10.850;2023-04-24T00:51:10;1.10;;;1.00;;
22191;SDS011;11261;52.456;10.850;2023-04-24T00:53:39;1.55;;;0.80;;
22191;SDS011;11261;52.456;10.850;2023-04-24T00:56:07;1.15;;;0.90;;
22191;SDS011;11261;52.456;10.850;2023-04-24T00:58:35;1.13;;;0.90;;
22191;SDS011;11261;52.456;10.850;2023-04-24T01:01:04;1.08;;;0.95;;
22191;SDS011;11261;52.456;10.850;2023-04-24T01:03:34;1.52;;;1.10;;
22191;SDS011;11261;52.456;10.850;2023-04-24T01:06:05;3.97;;;0.90;;
22191;SDS011;11261;52.456;10.850;2023-04-24T01:08:34;1.65;;;0.80;;
22191;SDS011;11261;52.456;10.850;2023-04-24T01:11:03;1.70;;;0.88;;
22191;SDS011;11261;52.456;10.850;2023-04-24T01:13:32;0.90;;;0.80;;
22191;SDS011;11261;52.456;10.850;2023-04-24T01:16:01;1.08;;;0.80;;
22191;SDS011;11261;52.456;10.850;2023-04-24T01:18:30;1.17;;;0.80;;
22191;SDS011;11261;52.456;10.850;2023-04-24T01:20:58;0.80;;;0.80;;
22191;SDS011;11261;52.456;10.850;2023-04-24T01:23:30;0.82;;;0.65;;
22191;SDS011;11261;52.456;10.850;2023-04-24T01:25:58;0.73;;;0.73;;
22191;SDS011;11261;52.456;10.850;2023-04-24T01:28:26;0.80;;;0.60;;
22191;SDS011;11261;52.456;10.850;2023-04-24T01:30:54;0.65;;;0.60;;
22191;SDS011;11261;52.456;10.850;2023-04-24T01:33:23;0.70;;;0.70;;
22191;SDS011;11261;52.456;10.850;2023-04-24T01:35:51;0.68;;;0.57;;
22191;SDS011;11261;52.456;10.850;2023-04-24T01:38:20;0.88;;;0.80;;
22191;SDS011;11261;52.456;10.850;2023-04-24T01:40:50;2.13;;;0.88;;
22191;SDS011;11261;52.456;10.850;2023-04-24T01:43:19;1.10;;;0.85;;
22191;SDS011;11261;52.456;10.850;2023-04-24T01:45:47;2.28;;;0.90;;
22191;SDS011;11261;52.456;10.850;2023-04-24T01:48:16;0.80;;;0.70;;
22191;SDS011;11261;52.456;10.850;2023-04-24T01:50:44;1.20;;;0.80;;
22191;SDS011;11261;52.456;10.850;2023-04-24T01:53:12;2.28;;;0.73;;
22191;SDS011;11261;52.456;10.850;2023-04-24T01:55:40;1.67;;;0.70;;
22191;SDS011;11261;52.456;10.850;2023-04-24T01:58:10;1.40;;;0.70;;
22191;SDS011;11261;52.456;10.850;2023-04-24T02:00:38;0.70;;;0.60;;
22191;SDS011;11261;52.456;10.850;2023-04-24T02:03:07;0.98;;;0.77;;
22191;SDS011;11261;52.456;10.850;2023-04-24T02:05:35;1.25;;;0.98;;
22191;SDS011;11261;52.456;10.850;2023-04-24T02:08:03;1.58;;;0.80;;
22191;SDS011;11261;52.456;10.850;2023-04-24T02:10:32;1.48;;;0.80;;
22191;SDS011;11261;52.456;10.850;2023-04-24T02:13:00;1.02;;;0.80;;
22191;SDS011;11261;52.456;10.850;2023-04-24T02:15:30;0.90;;;0.70;;
22191;SDS011;11261;52.456;10.850;2023-04-24T02:17:58;1.58;;;0.65;;
22191;SDS011;11261;52.456;10.850;2023-04-24T02:20:27;0.52;;;0.52;;
22191;SDS011;11261;52.456;10.850;2023-04-24T02:22:55;0.60;;;0.60;;
22191;SDS011;11261;52.456;10.850;2023-04-24T02:25:23;1.75;;;0.70;;
22191;SDS011;11261;52.456;10.850;2023-04-24T02:27:51;0.60;;;0.60;;
22191;SDS011;11261;52.456;10.850;2023-04-24T02:30:20;0.60;;;0.60;;
22191;SDS011;11261;52.456;10.850;2023-04-24T02:32:50;1.40;;;0.70;;
22191;SDS011;11261;52.456;10.850;2023-04-24T02:35:18;0.80;;;0.77;;
22191;SDS011;11261;52.456;10.850;2023-04-24T02:37:47;1.13;;;0.90;;
22191;SDS011;11261;52.456;10.850;2023-04-24T02:40:15;0.93;;;0.73;;
22191;SDS011;11261;52.456;10.850;2023-04-24T02:42:43;0.60;;;0.60;;
22191;SDS011;11261;52.456;10.850;2023-04-24T02:45:12;0.60;;;0.60;;
22191;SDS011;11261;52.456;10.850;2023-04-24T02:47:40;2.13;;;0.75;;
22191;SDS011;11261;52.456;10.850;2023-04-24T02:50:10;1.55;;;0.85;;
22191;SDS011;11261;52.456;10.850;2023-04-24T02:52:38;1.27;;;0.65;;
22191;SDS011;11261;52.456;10.850;2023-04-24T02:55:06;0.80;;;0.60;;
22191;SDS011;11261;52.456;10.850;2023-04-24T02:57:35;3.92;;;0.70;;
22191;SDS011;11261;52.456;10.850;2023-04-24T03:00:04;1.50;;;1.00;;
22191;SDS011;11261;52.456;10.850;2023-04-24T03:02:33;1.48;;;0.60;;
22191;SDS011;11261;52.456;10.850;2023-04-24T03:05:02;0.90;;;0.70;;
22191;SDS011;11261;52.456;10.850;2023-04-24T03:07:32;3.70;;;0.70;;
22191;SDS011;11261;52.456;10.850;2023-04-24T03:10:00;2.15;;;0.70;;
22191;SDS011;11261;52.456;10.850;2023-04-24T03:12:28;0.95;;;0.70;;
22191;SDS011;11261;52.456;10.850;2023-04-24T03:14:56;0.60;;;0.60;;
22191;SDS011;11261;52.456;10.850;2023-04-24T03:17:25;1.23;;;0.80;;
22191;SDS011;11261;52.456;10.850;2023-04-24T03:19:53;1.23;;;0.70;;
22191;SDS011;11261;52.456;10.850;2023-04-24T03:22:21;1.77;;;0.82;;
22191;SDS011;11261;52.456;10.850;2023-04-24T03:24:51;0.85;;;0.70;;
22191;SDS011;11261;52.456;10.850;2023-04-24T03:27:19;3.40;;;0.70;;
22191;SDS011;11261;52.456;10.850;2023-04-24T03:29:47;1.15;;;0.60;;
22191;SDS011;11261;52.456;10.850;2023-04-24T03:32:17;0.95;;;0.70;;
22191;SDS011;11261;52.456;10.850;2023-04-24T03:34:46;0.70;;;0.70;;
22191;SDS011;11261;52.456;10.850;2023-04-24T03:37:14;0.70;;;0.60;;
22191;SDS011;11261;52.456;10.850;2023-04-24T03:39:42;1.67;;;0.70;;
22191;SDS011;11261;52.456;10.850;2023-04-24T03:42:12;2.00;;;0.80;;
22191;SDS011;11261;52.456;10.850;2023-04-24T03:44:40;0.68;;;0.63;;
22191;SDS011;11261;52.456;10.850;2023-04-24T03:47:08;1.25;;;0.70;;
22191;SDS011;11261;52.456;10.850;2023-04-24T03:49:36;0.82;;;0.52;;
22191;SDS011;11261;52.456;10.850;2023-04-24T03:52:04;0.77;;;0.63;;
22191;SDS011;11261;52.456;10.850;2023-04-24T03:54:33;1.27;;;0.65;;
22191;SDS011;11261;52.456;10.850;2023-04-24T03:57:01;1.33;;;0.70;;
22191;SDS011;11261;52.456;10.850;2023-04-24T03:59:32;0.82;;;0.80;;
22191;SDS011;11261;52.456;10.850;2023-04-24T04:02:00;0.73;;;0.70;;
22191;SDS011;11261;52.456;10.850;2023-04-24T04:04:29;0.82;;;0.55;;
22191;SDS011;11261;52.456;10.850;2023-04-24T04:06:57;1.83;;;0.80;;
22191;SDS011;11261;52.456;10.850;2023-04-24T04:09:27;1.58;;;0.80;;
22191;SDS011;11261;52.456;10.850;2023-04-24T04:11:55;0.65;;;0.65;;
22191;SDS011;11261;52.456;10.850;2023-04-24T04:14:23;1.83;;;0.60;;
22191;SDS011;11261;52.456;10.850;2023-04-24T04:16:53;0.70;;;0.60;;
22191;SDS011;11261;52.456;10.850;2023-04-24T04:19:21;2.50;;;0.63;;
22191;SDS011;11261;52.456;10.850;2023-04-24T04:21:50;1.05;;;0.73;;
22191;SDS011;11261;52.456;10.850;2023-04-24T04:24:19;0.70;;;0.68;;
22191;SDS011;11261;52.456;10.850;2023-04-24T04:26:48;2.28;;;0.85;;
22191;SDS011;11261;52.456;10.850;2023-04-24T04:29:17;0.98;;;0.77;;
22191;SDS011;11261;52.456;10.850;2023-04-24T04:31:46;2.72;;;0.80;;
22191;SDS011;11261;52.456;10.850;2023-04-24T04:34:15;1.67;;;0.93;;
22191;SDS011;11261;52.456;10.850;2023-04-24T04:36:44;0.93;;;0.60;;
22191;SDS011;11261;52.456;10.850;2023-04-24T04:39:13;0.65;;;0.65;;
22191;SDS011;11261;52.456;10.850;2023-04-24T04:41:42;0.68;;;0.68;;
22191;SDS011;11261;52.456;10.850;2023-04-24T04:44:12;0.93;;;0.70;;
22191;SDS011;11261;52.456;10.850;2023-04-24T04:46:41;1.38;;;0.60;;
22191;SDS011;11261;52.456;10.850;2023-04-24T04:49:10;0.68;;;0.68;;
22191;SDS011;11261;52.456;10.850;2023-04-24T04:51:40;1.38;;;0.40;;
22191;SDS011;11261;52.456;10.850;2023-04-24T04:54:09;3.33;;;0.60;;
22191;SDS011;11261;52.456;10.850;2023-04-24T04:56:37;0.50;;;0.50;;
22191;SDS011;11261;52.456;10.850;2023-04-24T04:59:05;0.93;;;0.60;;
22191;SDS011;11261;52.456;10.850;2023-04-24T05:01:33;0.52;;;0.50;;
22191;SDS011;11261;52.456;10.850;2023-04-24T05:04:03;1.10;;;0.70;;
22191;SDS011;11261;52.456;10.850;2023-04-24T05:06:31;0.68;;;0.68;;
22191;SDS011;11261;52.456;10.850;2023-04-24T05:09:01;1.40;;;0.50;;
22191;SDS011;11261;52.456;10.850;2023-04-24T05:11:30;2.10;;;0.60;;
22191;SDS011;11261;52.456;10.850;2023-04-24T05:13:58;1.98;;;0.73;;
22191;SDS011;11261;52.456;10.850;2023-04-24T05:16:26;0.98;;;0.60;;
22191;SDS011;11261;52.456;10.850;2023-04-24T05:18:54;1.58;;;0.50;;
22191;SDS011;11261;52.456;10.850;2023-04-24T05:21:23;1.70;;;0.80;;
22191;SDS011;11261;52.456;10.850;2023-04-24T05:23:51;3.28;;;0.70;;
22191;SDS011;11261;52.456;10.850;2023-04-24T05:26:21;0.77;;;0.55;;
22191;SDS011;11261;52.456;10.850;2023-04-24T05:28:49;6.28;;;0.70;;
22191;SDS011;11261;52.456;10.850;2023-04-24T05:31:17;0.60;;;0.50;;
22191;SDS011;11261;52.456;10.850;2023-04-24T05:33:46;2.15;;;0.60;;
22191;SDS011;11261;52.456;10.850;2023-04-24T05:36:14;1.48;;;0.50;;
22191;SDS011;11261;52.456;10.850;2023-04-24T05:38:42;1.08;;;0.70;;
22191;SDS011;11261;52.456;10.850;2023-04-24T05:41:11;1.85;;;0.63;;
22191;SDS011;11261;52.456;10.850;2023-04-24T05:43:40;0.50;;;0.43;;
22191;SDS011;11261;52.456;10.850;2023-04-24T05:46:08;6.03;;;0.80;;
22191;SDS011;11261;52.456;10.850;2023-04-24T05:48:36;1.85;;;0.60;;
22191;SDS011;11261;52.456;10.850;2023-04-24T05:51:05;1.85;;;0.70;;
22191;SDS011;11261;52.456;10.850;2023-04-24T05:53:33;0.93;;;0.50;;
22191;SDS011;11261;52.456;10.850;2023-04-24T05:56:01;1.05;;;0.55;;
22191;SDS011;11261;52.456;10.850;2023-04-24T05:58:30;0.60;;;0.60;;
22191;SDS011;11261;52.456;10.850;2023-04-24T06:00:59;1.33;;;0.60;;
22191;SDS011;11261;52.456;10.850;2023-04-24T06:03:29;0.50;;;0.50;;
22191;SDS011;11261;52.456;10.850;2023-04-24T06:05:57;0.70;;;0.43;;
22191;SDS011;11261;52.456;10.850;2023-04-24T06:08:25;1.02;;;0.60;;
22191;SDS011;11261;52.456;10.850;2023-04-24T06:10:54;1.35;;;0.70;;
22191;SDS011;11261;52.456;10.850;2023-04-24T06:13:22;0.95;;;0.60;;
22191;SDS011;11261;52.456;10.850;2023-04-24T06:15:50;0.70;;;0.70;;
22191;SDS011;11261;52.456;10.850;2023-04-24T06:18:21;1.55;;;0.52;;
22191;SDS011;11261;52.456;10.850;2023-04-24T06:20:49;0.63;;;0.45;;
22191;SDS011;11261;52.456;10.850;2023-04-24T06:23:18;2.53;;;0.60;;
22191;SDS011;11261;52.456;10.850;2023-04-24T06:25:46;1.05;;;0.60;;
22191;SDS011;11261;52.456;10.850;2023-04-24T06:28:14;0.65;;;0.50;;
22191;SDS011;11261;52.456;10.850;2023-04-24T06:30:42;0.68;;;0.57;;
22191;SDS011;11261;52.456;10.850;2023-04-24T06:33:11;0.85;;;0.60;;
22191;SDS011;11261;52.456;10.850;2023-04-24T06:35:45;0.60;;;0.57;;
22191;SDS011;11261;52.456;10.850;2023-04-24T06:38:13;0.75;;;0.60;;
22191;SDS011;11261;52.456;10.850;2023-04-24T06:40:42;1.92;;;0.50;;
22191;SDS011;11261;52.456;10.850;2023-04-24T06:43:11;2.15;;;0.60;;
22191;SDS011;11261;52.456;10.850;2023-04-24T06:45:39;0.73;;;0.50;;
22191;SDS011;11261;52.456;10.850;2023-04-24T06:48:09;1.38;;;0.50;;
22191;SDS011;11261;52.456;10.850;2023-04-24T06:50:38;0.68;;;0.52;;
22191;SDS011;11261;52.456;10.850;2023-04-24T06:53:08;0.73;;;0.63;;
22191;SDS011;11261;52.456;10.850;2023-04-24T06:55:37;1.02;;;0.60;;
22191;SDS011;11261;52.456;10.850;2023-04-24T06:58:06;0.95;;;0.80;;
22191;SDS011;11261;52.456;10.850;2023-04-24T07:00:34;0.60;;;0.50;;
22191;SDS011;11261;52.456;10.850;2023-04-24T07:03:02;0.85;;;0.50;;
22191;SDS011;11261;52.456;10.850;2023-04-24T07:05:31;0.70;;;0.60;;
22191;SDS011;11261;52.456;10.850;2023-04-24T07:08:01;1.00;;;0.63;;
22191;SDS011;11261;52.456;10.850;2023-04-24T07:10:32;0.98;;;0.63;;
22191;SDS011;11261;52.456;10.850;2023-04-24T07:13:02;1.17;;;0.60;;
22191;SDS011;11261;52.456;10.850;2023-04-24T07:15:30;0.85;;;0.60;;
22191;SDS011;11261;52.456;10.850;2023-04-24T07:17:58;2.53;;;0.63;;
22191;SDS011;11261;52.456;10.850;2023-04-24T07:20:30;2.60;;;0.60;;
22191;SDS011;11261;52.456;10.850;2023-04-24T07:22:59;1.27;;;0.60;;
22191;SDS011;11261;52.456;10.850;2023-04-24T07:25:28;2.47;;;0.70;;
22191;SDS011;11261;52.456;10.850;2023-04-24T07:27:59;0.60;;;0.60;;
22191;SDS011;11261;52.456;10.850;2023-04-24T07:30:27;1.38;;;0.80;;
22191;SDS011;11261;52.456;10.850;2023-04-24T07:32:55;1.20;;;0.60;;
22191;SDS011;11261;52.456;10.850;2023-04-24T07:35:24;1.00;;;0.60;;
22191;SDS011;11261;52.456;10.850;2023-04-24T07:37:53;0.65;;;0.60;;
22191;SDS011;11261;52.456;10.850;2023-04-24T07:40:21;3.80;;;0.80;;
22191;SDS011;11261;52.456;10.850;2023-04-24T07:42:50;1.35;;;0.90;;
22191;SDS011;11261;52.456;10.850;2023-04-24T07:45:19;2.70;;;0.85;;
22191;SDS011;11261;52.456;10.850;2023-04-24T07:47:50;0.88;;;0.68;;
22191;SDS011;11261;52.456;10.850;2023-04-24T07:50:18;1.23;;;0.60;;
22191;SDS011;11261;52.456;10.850;2023-04-24T07:52:47;3.92;;;0.68;;
22191;SDS011;11261;52.456;10.850;2023-04-24T07:55:15;1.15;;;0.80;;
22191;SDS011;11261;52.456;10.850;2023-04-24T07:57:45;0.80;;;0.63;;
22191;SDS011;11261;52.456;10.850;2023-04-24T08:00:13;0.60;;;0.60;;
22191;SDS011;11261;52.456;10.850;2023-04-24T08:02:44;1.25;;;0.70;;
22191;SDS011;11261;52.456;10.850;2023-04-24T08:05:12;1.05;;;0.95;;
22191;SDS011;11261;52.456;10.850;2023-04-24T08:07:40;1.80;;;0.90;;
22191;SDS011;11261;52.456;10.850;2023-04-24T08:10:09;0.80;;;0.60;;
22191;SDS011;11261;52.456;10.850;2023-04-24T08:12:38;1.20;;;0.70;;
22191;SDS011;11261;52.456;10.850;2023-04-24T08:15:06;0.50;;;0.50;;
22191;SDS011;11261;52.456;10.850;2023-04-24T08:17:36;1.33;;;0.52;;
22191;SDS011;11261;52.456;10.850;2023-04-24T08:20:06;0.55;;;0.45;;
22191;SDS011;11261;52.456;10.850;2023-04-24T08:22:39;1.85;;;0.55;;
22191;SDS011;11261;52.456;10.850;2023-04-24T08:25:08;1.50;;;0.73;;
22191;SDS011;11261;52.456;10.850;2023-04-24T08:27:37;0.50;;;0.50;;
22191;SDS011;11261;52.456;10.850;2023-04-24T08:30:05;0.30;;;0.30;;
22191;SDS011;11261;52.456;10.850;2023-04-24T08:32:34;1.63;;;0.68;;
22191;SDS011;11261;52.456;10.850;2023-04-24T08:35:03;0.88;;;0.70;;
22191;SDS011;11261;52.456;10.850;2023-04-24T08:37:35;0.80;;;0.80;;
22191;SDS011;11261;52.456;10.850;2023-04-24T08:40:05;2.10;;;0.95;;
22191;SDS011;11261;52.456;10.850;2023-04-24T08:42:39;0.90;;;0.80;;
22191;SDS011;11261;52.456;10.850;2023-04-24T08:45:11;1.52;;;1.15;;
22191;SDS011;11261;52.456;10.850;2023-04-24T08:47:40;1.83;;;1.00;;
22191;SDS011;11261;52.456;10.850;2023-04-24T08:50:12;1.65;;;1.13;;
22191;SDS011;11261;52.456;10.850;2023-04-24T08:52:41;3.45;;;1.90;;
22191;SDS011;11261;52.456;10.850;2023-04-24T08:55:10;3.42;;;1.35;;
22191;SDS011;11261;52.456;10.850;2023-04-24T08:57:38;2.35;;;1.40;;
22191;SDS011;11261;52.456;10.850;2023-04-24T09:00:08;2.88;;;1.30;;
22191;SDS011;11261;52.456;10.850;2023-04-24T09:02:39;3.05;;;1.33;;
22191;SDS011;11261;52.456;10.850;2023-04-24T09:05:11;1.30;;;1.00;;
22191;SDS011;11261;52.456;10.850;2023-04-24T09:07:41;2.00;;;1.20;;
22191;SDS011;11261;52.456;10.850;2023-04-24T09:10:12;1.63;;;1.17;;
22191;SDS011;11261;52.456;10.850;2023-04-24T09:12:41;3.28;;;1.10;;
22191;SDS011;11261;52.456;10.850;2023-04-24T09:15:10;1.63;;;1.40;;
22191;SDS011;11261;52.456;10.850;2023-04-24T09:17:38;2.70;;;1.30;;
22191;SDS011;11261;52.456;10.850;2023-04-24T09:20:07;0.40;;;0.40;;
22191;SDS011;11261;52.456;10.850;2023-04-24T09:22:37;1.20;;;0.45;;
22191;SDS011;11261;52.456;10.850;2023-04-24T09:25:07;1.40;;;1.10;;
22191;SDS011;11261;52.456;10.850;2023-04-24T09:27:41;3.80;;;1.90;;
22191;SDS011;11261;52.456;10.850;2023-04-24T09:30:11;2.28;;;1.40;;
22191;SDS011;11261;52.456;10.850;2023-04-24T09:32:41;1.30;;;1.08;;
22191;SDS011;11261;52.456;10.850;2023-04-24T09:35:10;0.43;;;0.43;;
22191;SDS011;11261;52.456;10.850;2023-04-24T09:37:42;2.85;;;1.40;;
22191;SDS011;11261;52.456;10.850;2023-04-24T09:40:11;3.00;;;2.00;;
22191;SDS011;11261;52.456;10.850;2023-04-24T09:42:45;2.40;;;1.70;;
22191;SDS011;11261;52.456;10.850;2023-04-24T09:45:14;1.60;;;1.23;;
22191;SDS011;11261;52.456;10.850;2023-04-24T09:47:43;2.58;;;2.00;;
22191;SDS011;11261;52.456;10.850;2023-04-24T09:50:14;1.30;;;1.13;;
22191;SDS011;11261;52.456;10.850;2023-04-24T09:52:56;3.17;;;1.73;;
22191;SDS011;11261;52.456;10.850;2023-04-24T09:55:25;2.22;;;1.77;;
22191;SDS011;11261;52.456;10.850;2023-04-24T09:57:54;2.55;;;1.90;;
22191;SDS011;11261;52.456;10.850;2023-04-24T10:00:24;2.33;;;1.98;;
22191;SDS011;11261;52.456;10.850;2023-04-24T10:02:58;2.70;;;1.42;;
22191;SDS011;11261;52.456;10.850;2023-04-24T10:05:28;2.95;;;2.08;;
22191;SDS011;11261;52.456;10.850;2023-04-24T10:08:04;2.28;;;1.50;;
22191;SDS011;11261;52.456;10.850;2023-04-24T10:10:33;1.95;;;1.75;;
22191;SDS011;11261;52.456;10.850;2023-04-24T10:13:04;2.25;;;1.55;;
22191;SDS011;11261;52.456;10.850;2023-04-24T10:15:34;2.60;;;2.00;;
22191;SDS011;11261;52.456;10.850;2023-04-24T10:18:03;1.98;;;1.60;;
22191;SDS011;11261;52.456;10.850;2023-04-24T10:20:33;2.30;;;1.52;;
22191;SDS011;11261;52.456;10.850;2023-04-24T10:23:04;4.18;;;1.77;;
22191;SDS011;11261;52.456;10.850;2023-04-24T10:25:34;2.00;;;1.50;;
22191;SDS011;11261;52.456;10.850;2023-04-24T10:28:03;2.28;;;1.85;;
22191;SDS011;11261;52.456;10.850;2023-04-24T10:30:35;4.13;;;1.90;;
22191;SDS011;11261;52.456;10.850;2023-04-24T10:33:04;1.52;;;1.38;;
22191;SDS011;11261;52.456;10.850;2023-04-24T10:35:37;2.22;;;1.60;;
22191;SDS011;11261;52.456;10.850;2023-04-24T10:38:11;2.42;;;1.52;;
22191;SDS011;11261;52.456;10.850;2023-04-24T10:40:41;4.88;;;1.85;;
22191;SDS011;11261;52.456;10.850;2023-04-24T10:43:10;1.67;;;1.58;;
22191;SDS011;11261;52.456;10.850;2023-04-24T10:45:59;1.42;;;1.13;;
22191;SDS011;11261;52.456;10.850;2023-04-24T10:48:28;2.10;;;1.27;;
22191;SDS011;11261;52.456;10.850;2023-04-24T10:50:56;1.60;;;1.45;;
22191;SDS011;11261;52.456;10.850;2023-04-24T10:53:28;1.40;;;1.15;;
22191;SDS011;11261;52.456;10.850;2023-04-24T10:55:58;1.55;;;1.25;;
22191;SDS011;11261;52.456;10.850;2023-04-24T10:58:36;1.58;;;1.30;;
22191;SDS011;11261;52.456;10.850;2023-04-24T11:01:06;2.05;;;1.27;;
22191;SDS011;11261;52.456;10.850;2023-04-24T11:03:35;0.82;;;0.82;;
22191;SDS011;11261;52.456;10.850;2023-04-24T11:06:05;1.45;;;1.20;;
22191;SDS011;11261;52.456;10.850;2023-04-24T11:08:38;1.17;;;1.00;;
22191;SDS011;11261;52.456;10.850;2023-04-24T11:11:11;2.15;;;1.00;;
22191;SDS011;11261;52.456;10.850;2023-04-24T11:16:35;2.22;;;1.38;;
22191;SDS011;11261;52.456;10.850;2023-04-24T11:19:07;1.80;;;1.20;;
22191;SDS011;11261;52.456;10.850;2023-04-24T11:21:40;1.48;;;1.27;;
22191;SDS011;11261;52.456;10.850;2023-04-24T11:24:39;2.03;;;1.10;;
22191;SDS011;11261;52.456;10.850;2023-04-24T11:27:16;1.20;;;1.10;;
22191;SDS011;11261;52.456;10.850;2023-04-24T11:29:46;2.13;;;1.30;;
22191;SDS011;11261;52.456;10.850;2023-04-24T11:32:17;1.70;;;1.30;;
22191;SDS011;11261;52.456;10.850;2023-04-24T11:34:57;2.92;;;1.33;;
22191;SDS011;11261;52.456;10.850;2023-04-24T11:37:27;1.52;;;1.42;;
22191;SDS011;11261;52.456;10.850;2023-04-24T11:39:58;3.15;;;1.27;;
22191;SDS011;11261;52.456;10.850;2023-04-24T11:42:27;1.65;;;1.40;;
22191;SDS011;11261;52.456;10.850;2023-04-24T11:45:00;1.13;;;0.88;;
22191;SDS011;11261;52.456;10.850;2023-04-24T11:47:30;1.00;;;0.90;;
22191;SDS011;11261;52.456;10.850;2023-04-24T11:50:00;1.05;;;0.95;;
22191;SDS011;11261;52.456;10.850;2023-04-24T11:52:29;2.83;;;1.10;;
22191;SDS011;11261;52.456;10.850;2023-04-24T11:54:59;1.38;;;1.17;;
22191;SDS011;11261;52.456;10.850;2023-04-24T11:57:28;1.15;;;1.00;;
22191;SDS011;11261;52.456;10.850;2023-04-24T11:59:59;1.08;;;0.80;;
22191;SDS011;11261;52.456;10.850;2023-04-24T12:02:30;1.90;;;1.17;;
22191;SDS011;11261;52.456;10.850;2023-04-24T12:04:59;1.50;;;0.80;;
22191;SDS011;11261;52.456;10.850;2023-04-24T12:07:28;2.88;;;1.10;;
22191;SDS011;11261;52.456;10.850;2023-04-24T12:09:56;0.90;;;0.90;;
22191;SDS011;11261;52.456;10.850;2023-04-24T12:12:27;1.05;;;0.90;;
22191;SDS011;11261;52.456;10.850;2023-04-24T12:14:56;3.80;;;1.10;;
22191;SDS011;11261;52.456;10.850;2023-04-24T12:17:26;0.75;;;0.70;;
22191;SDS011;11261;52.456;10.850;2023-04-24T12:19:58;2.47;;;1.00;;
22191;SDS011;11261;52.456;10.850;2023-04-24T12:22:35;0.70;;;0.70;;
22191;SDS011;11261;52.456;10.850;2023-04-24T12:25:13;1.95;;;0.80;;
22191;SDS011;11261;52.456;10.850;2023-04-24T12:27:42;1.65;;;0.85;;
22191;SDS011;11261;52.456;10.850;2023-04-24T12:30:12;1.55;;;0.95;;
22191;SDS011;11261;52.456;10.850;2023-04-24T12:32:41;0.93;;;0.77;;
22191;SDS011;11261;52.456;10.850;2023-04-24T12:35:10;0.73;;;0.73;;
22191;SDS011;11261;52.456;10.850;2023-04-24T12:37:41;1.05;;;0.70;;
22191;SDS011;11261;52.456;10.850;2023-04-24T12:40:14;0.70;;;0.70;;
22191;SDS011;11261;52.456;10.850;2023-04-24T12:42:43;1.45;;;0.88;;
22191;SDS011;11261;52.456;10.850;2023-04-24T12:45:12;1.05;;;0.90;;
22191;SDS011;11261;52.456;10.850;2023-04-24T12:47:42;1.38;;;0.60;;
22191;SDS011;11261;52.456;10.850;2023-04-24T12:50:11;0.43;;;0.40;;
22191;SDS011;11261;52.456;10.850;2023-04-24T12:52:41;2.47;;;0.80;;
22191;SDS011;11261;52.456;10.850;2023-04-24T12:55:10;1.48;;;0.70;;
22191;SDS011;11261;52.456;10.850;2023-04-24T12:57:40;1.65;;;0.98;;
22191;SDS011;11261;52.456;10.850;2023-04-24T13:00:09;1.63;;;1.15;;
22191;SDS011;11261;52.456;10.850;2023-04-24T13:02:37;0.85;;;0.80;;
22191;SDS011;11261;52.456;10.850;2023-04-24T13:05:06;1.05;;;0.77;;
22191;SDS011;11261;52.456;10.850;2023-04-24T13:07:35;1.20;;;1.00;;
22191;SDS011;11261;52.456;10.850;2023-04-24T13:10:03;0.90;;;0.75;;
22191;SDS011;11261;52.456;10.850;2023-04-24T13:12:32;0.90;;;0.73;;
22191;SDS011;11261;52.456;10.850;2023-04-24T13:15:03;1.00;;;0.73;;
22191;SDS011;11261;52.456;10.850;2023-04-24T13:17:32;1.85;;;0.90;;
22191;SDS011;11261;52.456;10.850;2023-04-24T13:20:00;1.42;;;0.90;;
22191;SDS011;11261;52.456;10.850;2023-04-24T13:22:29;0.85;;;0.70;;
22191;SDS011;11261;52.456;10.850;2023-04-24T13:24:57;0.98;;;0.80;;
22191;SDS011;11261;52.456;10.850;2023-04-24T13:27:25;0.93;;;0.80;;
22191;SDS011;11261;52.456;10.850;2023-04-24T13:29:54;1.45;;;0.80;;
22191;SDS011;11261;52.456;10.850;2023-04-24T13:32:23;1.02;;;0.73;;
22191;SDS011;11261;52.456;10.850;2023-04-24T13:34:53;1.08;;;0.60;;
22191;SDS011;11261;52.456;10.850;2023-04-24T13:37:21;1.33;;;0.90;;
22191;SDS011;11261;52.456;10.850;2023-04-24T13:39:50;0.55;;;0.30;;
22191;SDS011;11261;52.456;10.850;2023-04-24T13:42:18;1.08;;;0.40;;
22191;SDS011;11261;52.456;10.850;2023-04-24T13:44:47;1.95;;;0.30;;
22191;SDS011;11261;52.456;10.850;2023-04-24T13:47:15;0.30;;;0.30;;
22191;SDS011;11261;52.456;10.850;2023-04-24T13:49:45;0.32;;;0.32;;
22191;SDS011;11261;52.456;10.850;2023-04-24T13:52:13;0.38;;;0.38;;
22191;SDS011;11261;52.456;10.850;2023-04-24T13:54:42;0.70;;;0.70;;
22191;SDS011;11261;52.456;10.850;2023-04-24T13:57:10;0.60;;;0.60;;
22191;SDS011;11261;52.456;10.850;2023-04-24T13:59:39;0.95;;;0.65;;
22191;SDS011;11261;52.456;10.850;2023-04-24T14:02:07;0.70;;;0.60;;
22191;SDS011;11261;52.456;10.850;2023-04-24T14:04:36;0.32;;;0.32;;
22191;SDS011;11261;52.456;10.850;2023-04-24T14:07:06;0.50;;;0.50;;
22191;SDS011;11261;52.456;10.850;2023-04-24T14:09:35;0.90;;;0.60;;
22191;SDS011;11261;52.456;10.850;2023-04-24T14:12:03;0.43;;;0.43;;
22191;SDS011;11261;52.456;10.850;2023-04-24T14:14:32;0.55;;;0.50;;
22191;SDS011;11261;52.456;10.850;2023-04-24T14:17:01;0.60;;;0.60;;
22191;SDS011;11261;52.456;10.850;2023-04-24T14:19:29;0.70;;;0.60;;
22191;SDS011;11261;52.456;10.850;2023-04-24T14:21:57;0.52;;;0.50;;
22191;SDS011;11261;52.456;10.850;2023-04-24T14:24:27;0.77;;;0.70;;
22191;SDS011;11261;52.456;10.850;2023-04-24T14:26:55;1.10;;;0.90;;
22191;SDS011;11261;52.456;10.850;2023-04-24T14:29:23;0.45;;;0.45;;
22191;SDS011;11261;52.456;10.850;2023-04-24T14:31:52;1.13;;;0.65;;
22191;SDS011;11261;52.456;10.850;2023-04-24T14:34:20;0.55;;;0.55;;
22191;SDS011;11261;52.456;10.850;2023-04-24T14:36:49;0.70;;;0.70;;
22191;SDS011;11261;52.456;10.850;2023-04-24T14:39:41;1.13;;;1.02;;
22191;SDS011;11261;52.456;10.850;2023-04-24T14:42:28;2.38;;;1.25;;
22191;SDS011;11261;52.456;10.850;2023-04-24T14:45:09;1.42;;;0.63;;
22191;SDS011;11261;52.456;10.850;2023-04-24T14:47:50;1.35;;;0.80;;
22191;SDS011;11261;52.456;10.850;2023-04-24T14:50:38;1.42;;;0.85;;